createdAt,value
2022-11-14T00:01:13.193Z,17.93
2022-11-14T00:03:40.150Z,17.63
2022-11-14T00:06:08.722Z,20.77
2022-11-14T00:08:36.396Z,18.50
2022-11-14T00:11:03.708Z,18.90
2022-11-14T00:13:30.678Z,21.53
2022-11-14T00:15:57.562Z,24.93
2022-11-14T00:18:24.974Z,15.70
2022-11-14T00:20:53.851Z,14.60
2022-11-14T00:23:21.637Z,19.27
2022-11-14T00:25:49.301Z,19.13
2022-11-14T00:28:16.944Z,18.20
2022-11-14T00:30:48.620Z,22.23
2022-11-14T00:33:20.266Z,23.23
2022-11-14T00:36:06.337Z,19.80
2022-11-14T00:38:33.242Z,21.03
2022-11-14T00:41:00.252Z,26.27
2022-11-14T00:43:27.226Z,25.33
2022-11-14T00:45:54.171Z,20.50
2022-11-14T00:48:21.186Z,24.73
2022-11-14T00:50:48.183Z,24.10
2022-11-14T00:53:15.328Z,23.40
2022-11-14T00:55:43.864Z,19.37
2022-11-14T00:58:11.061Z,22.53
2022-11-14T01:00:38.615Z,21.27
2022-11-14T01:03:05.721Z,22.27
2022-11-14T01:05:32.825Z,23.23
2022-11-14T01:07:59.776Z,21.53
2022-11-14T01:10:26.711Z,23.53
2022-11-14T01:12:53.635Z,24.30
2022-11-14T01:15:20.686Z,20.13
2022-11-14T01:17:47.632Z,21.60
2022-11-14T01:20:16.387Z,19.80
2022-11-14T01:22:43.349Z,22.03
2022-11-14T01:25:10.648Z,21.03
2022-11-14T01:27:37.673Z,20.13
2022-11-14T01:30:05.712Z,22.87
2022-11-14T01:32:32.763Z,19.80
2022-11-14T01:34:59.711Z,21.13
2022-11-14T01:37:26.601Z,24.13
2022-11-14T01:39:53.581Z,26.57
2022-11-14T01:42:25.974Z,23.10
2022-11-14T01:44:54.263Z,21.37
2022-11-14T01:47:26.417Z,26.67
2022-11-14T01:49:59.346Z,20.90
2022-11-14T01:52:32.356Z,24.43
2022-11-14T01:55:04.162Z,21.27
2022-11-14T01:57:39.241Z,26.63
2022-11-14T02:00:11.385Z,26.97
2022-11-14T02:02:39.163Z,25.13
2022-11-14T02:05:15.753Z,21.00
2022-11-14T02:07:43.232Z,20.20
2022-11-14T02:10:18.812Z,18.00
2022-11-14T02:12:46.512Z,18.40
2022-11-14T02:15:14.705Z,17.93
2022-11-14T02:17:43.759Z,19.97
2022-11-14T02:20:11.525Z,19.20
2022-11-14T02:22:41.875Z,21.13
2022-11-14T02:25:11.492Z,16.80
2022-11-14T02:27:39.991Z,21.70
2022-11-14T02:30:14.137Z,17.00
2022-11-14T02:35:28.076Z,21.30
2022-11-14T02:37:55.066Z,20.93
2022-11-14T02:40:22.035Z,18.43
2022-11-14T02:42:49.158Z,19.80
2022-11-14T02:45:16.076Z,26.00
2022-11-14T02:47:43.081Z,23.20
2022-11-14T02:50:10.666Z,19.00
2022-11-14T02:52:37.630Z,22.00
2022-11-14T02:55:06.540Z,20.67
2022-11-14T02:57:33.516Z,17.57
2022-11-14T03:00:00.499Z,21.73
2022-11-14T03:02:27.458Z,21.57
2022-11-14T03:04:54.540Z,17.93
2022-11-14T03:07:21.554Z,16.67
2022-11-14T03:09:48.588Z,16.93
2022-11-14T03:12:20.176Z,20.07
2022-11-14T03:14:47.181Z,17.87
2022-11-14T03:17:14.176Z,16.47
2022-11-14T03:19:41.108Z,21.00
2022-11-14T03:22:08.283Z,16.23
2022-11-14T03:24:35.240Z,18.80
2022-11-14T03:27:02.226Z,18.40
2022-11-14T03:29:29.391Z,22.43
2022-11-14T03:31:56.265Z,16.70
2022-11-14T03:34:23.168Z,19.30
2022-11-14T03:36:50.146Z,17.00
2022-11-14T03:39:17.077Z,17.27
2022-11-14T03:41:44.048Z,17.33
2022-11-14T03:44:11.199Z,18.07
2022-11-14T03:46:38.208Z,21.20
2022-11-14T03:49:05.780Z,22.50
2022-11-14T03:51:32.734Z,24.63
2022-11-14T03:53:59.630Z,24.60
2022-11-14T03:56:26.587Z,26.70
2022-11-14T03:58:53.573Z,27.50
2022-11-14T04:01:20.695Z,27.20
2022-11-14T04:03:47.678Z,26.27
2022-11-14T04:06:15.436Z,25.47
2022-11-14T04:08:42.412Z,28.70
2022-11-14T04:11:09.712Z,29.27
2022-11-14T04:13:36.799Z,23.17
2022-11-14T04:16:04.657Z,24.73
2022-11-14T04:18:31.755Z,26.63
2022-11-14T04:20:59.160Z,26.57
2022-11-14T04:23:26.123Z,29.07
2022-11-14T04:25:53.139Z,28.40
2022-11-14T04:28:20.130Z,30.30
2022-11-14T04:30:47.067Z,22.90
2022-11-14T04:33:13.988Z,29.23
2022-11-14T04:35:40.879Z,27.90
2022-11-14T04:38:08.191Z,25.43
2022-11-14T04:40:35.115Z,24.77
2022-11-14T04:43:02.041Z,27.70
2022-11-14T04:45:29.012Z,28.37
2022-11-14T04:47:56.018Z,24.47
2022-11-14T04:50:22.918Z,25.30
2022-11-14T04:52:53.901Z,26.00
2022-11-14T04:55:20.842Z,24.60
2022-11-14T04:57:47.934Z,24.43
2022-11-14T05:00:15.650Z,31.37
2022-11-14T05:02:42.609Z,21.53
2022-11-14T05:05:09.794Z,24.83
2022-11-14T05:07:36.793Z,25.07
2022-11-14T05:10:05.204Z,24.93
2022-11-14T05:12:32.247Z,29.47
2022-11-14T05:14:59.221Z,27.53
2022-11-14T05:17:26.587Z,24.63
2022-11-14T05:19:53.650Z,26.37
2022-11-14T05:22:20.967Z,22.77
2022-11-14T05:24:47.838Z,24.50
2022-11-14T05:27:14.795Z,25.07
2022-11-14T05:29:41.755Z,23.83
2022-11-14T05:32:12.342Z,27.93
2022-11-14T05:34:42.172Z,28.10
2022-11-14T05:37:09.058Z,28.10
2022-11-14T05:39:36.192Z,25.50
2022-11-14T05:42:03.218Z,25.97
2022-11-14T05:44:30.373Z,21.50
2022-11-14T05:46:57.367Z,26.23
2022-11-14T05:49:24.297Z,25.43
2022-11-14T05:51:51.233Z,26.10
2022-11-14T05:54:18.301Z,32.20
2022-11-14T05:56:45.188Z,29.83
2022-11-14T05:59:12.183Z,29.17
2022-11-14T06:01:39.099Z,29.60
2022-11-14T06:04:07.235Z,23.63
2022-11-14T06:06:34.417Z,30.40
2022-11-14T06:09:01.413Z,27.10
2022-11-14T06:11:28.329Z,24.87
2022-11-14T06:13:55.271Z,26.93
2022-11-14T06:16:22.257Z,26.80
2022-11-14T06:18:49.787Z,27.63
2022-11-14T06:21:20.048Z,21.93
2022-11-14T06:23:48.061Z,30.00
2022-11-14T06:26:26.047Z,29.60
2022-11-14T06:28:54.345Z,23.17
2022-11-14T06:31:23.047Z,31.53
2022-11-14T06:33:50.687Z,26.90
2022-11-14T06:36:18.209Z,28.17
2022-11-14T06:38:45.484Z,32.87
2022-11-14T06:41:20.012Z,24.07
2022-11-14T06:43:50.354Z,25.50
2022-11-14T06:46:20.822Z,26.70
2022-11-14T06:48:49.963Z,28.87
2022-11-14T06:51:17.725Z,32.27
2022-11-14T06:53:44.864Z,28.77
2022-11-14T06:56:15.477Z,24.10
2022-11-14T06:58:46.252Z,22.20
2022-11-14T07:01:26.263Z,25.43
2022-11-14T07:03:53.515Z,23.50
2022-11-14T07:06:26.747Z,33.33
2022-11-14T07:08:55.795Z,28.40
2022-11-14T07:11:27.964Z,26.17
2022-11-14T07:14:00.497Z,29.43
2022-11-14T07:16:36.163Z,27.87
2022-11-14T07:19:07.307Z,25.30
2022-11-14T07:21:35.675Z,25.70
2022-11-14T07:24:02.701Z,26.00
2022-11-14T07:26:29.633Z,28.73
2022-11-14T07:29:02.060Z,28.50
2022-11-14T07:31:30.208Z,27.33
2022-11-14T07:33:57.388Z,28.17
2022-11-14T07:36:24.658Z,22.80
2022-11-14T07:38:51.664Z,27.80
2022-11-14T07:41:19.512Z,26.87
2022-11-14T07:43:46.965Z,27.23
2022-11-14T07:46:17.360Z,28.30
2022-11-14T07:48:45.312Z,24.40
2022-11-14T07:51:18.596Z,27.70
2022-11-14T07:53:45.730Z,25.70
2022-11-14T07:56:13.293Z,28.17
2022-11-14T07:58:42.283Z,26.20
2022-11-14T08:01:13.368Z,23.67
2022-11-14T08:03:45.384Z,21.50
2022-11-14T08:06:16.531Z,22.90
2022-11-14T08:08:43.928Z,22.13
2022-11-14T08:11:11.902Z,25.17
2022-11-14T08:13:39.142Z,22.60
2022-11-14T08:16:13.296Z,26.03
2022-11-14T08:18:41.656Z,27.23
2022-11-14T08:21:09.227Z,21.57
2022-11-14T08:23:36.438Z,21.97
2022-11-14T08:26:03.842Z,23.27
2022-11-14T08:28:31.228Z,24.13
2022-11-14T08:31:03.146Z,26.67
2022-11-14T08:33:31.083Z,17.97
2022-11-14T08:36:03.492Z,19.30
2022-11-14T08:38:33.475Z,18.93
2022-11-14T08:41:02.095Z,19.80
2022-11-14T08:43:31.316Z,27.43
2022-11-14T08:46:04.017Z,21.03
2022-11-14T08:48:33.265Z,20.17
2022-11-14T08:51:07.733Z,24.30
2022-11-14T08:53:35.548Z,21.80
2022-11-14T08:56:03.137Z,21.40
2022-11-14T08:58:32.648Z,19.77
2022-11-14T09:01:03.493Z,19.50
2022-11-14T09:03:30.780Z,20.53
2022-11-14T09:05:58.171Z,25.63
2022-11-14T09:08:25.537Z,19.50
2022-11-14T09:10:52.509Z,18.80
2022-11-14T09:13:19.855Z,18.30
2022-11-14T09:15:47.469Z,20.63
2022-11-14T09:18:15.455Z,18.00
2022-11-14T09:20:42.436Z,21.60
2022-11-14T09:23:10.982Z,20.87
2022-11-14T09:25:38.791Z,18.03
2022-11-14T09:28:09.536Z,19.50
2022-11-14T09:30:37.707Z,19.27
2022-11-14T09:33:11.484Z,19.20
2022-11-14T09:35:39.252Z,20.70
2022-11-14T09:38:12.262Z,21.20
2022-11-14T09:40:52.263Z,16.60
2022-11-14T09:43:55.793Z,21.20
2022-11-14T09:46:46.279Z,15.57
2022-11-14T09:49:46.345Z,15.57
2022-11-14T09:52:39.174Z,14.47
2022-11-14T09:55:17.931Z,16.73
2022-11-14T09:57:46.479Z,17.70
2022-11-14T10:00:17.681Z,18.80
2022-11-14T10:02:58.152Z,17.77
2022-11-14T10:05:54.458Z,16.90
2022-11-14T10:08:49.242Z,17.90
2022-11-14T10:12:23.732Z,16.37
2022-11-14T10:15:26.587Z,19.23
2022-11-14T10:18:18.243Z,17.10
2022-11-14T10:20:55.573Z,16.67
2022-11-14T10:24:07.061Z,19.37
2022-11-14T10:26:43.528Z,19.50
2022-11-14T10:29:48.348Z,18.10
2022-11-14T10:32:27.478Z,17.53
2022-11-14T10:35:10.364Z,18.40
2022-11-14T10:38:19.614Z,15.47
2022-11-14T10:40:50.979Z,18.30
2022-11-14T10:43:41.197Z,20.40
2022-11-14T10:46:25.433Z,22.53
2022-11-14T10:48:57.507Z,19.80
2022-11-14T10:51:51.742Z,14.13
2022-11-14T10:54:34.371Z,17.07
2022-11-14T10:57:01.552Z,19.47
2022-11-14T10:59:29.594Z,17.73
2022-11-14T11:01:58.869Z,17.73
2022-11-14T11:04:31.521Z,17.93
2022-11-14T11:07:07.761Z,16.77
2022-11-14T11:09:59.304Z,20.60
2022-11-14T11:12:49.277Z,15.00
2022-11-14T11:15:32.875Z,15.70
2022-11-14T11:18:14.493Z,18.00
2022-11-14T11:20:42.754Z,17.30
2022-11-14T11:23:09.743Z,17.97
2022-11-14T11:25:40.407Z,14.07
2022-11-14T11:28:20.654Z,16.73
2022-11-14T11:31:00.626Z,17.30
2022-11-14T11:33:33.886Z,16.90
2022-11-14T11:36:24.028Z,18.20
2022-11-14T11:38:51.233Z,14.87
2022-11-14T11:44:19.398Z,19.17
2022-11-14T11:47:02.480Z,16.03
2022-11-14T11:49:52.965Z,15.23
2022-11-14T11:53:16.348Z,15.93
2022-11-14T11:55:52.552Z,17.70
2022-11-14T11:59:15.303Z,14.40
2022-11-14T12:01:42.287Z,12.80
2022-11-14T12:04:09.490Z,12.30
2022-11-14T12:06:50.407Z,13.47
2022-11-14T12:09:48.718Z,12.10
2022-11-14T12:12:40.732Z,12.13
2022-11-14T12:15:41.383Z,12.17
2022-11-14T12:18:11.047Z,12.40
2022-11-14T12:20:43.898Z,10.55
2022-11-14T12:24:01.863Z,13.00
2022-11-14T12:26:40.969Z,10.17
2022-11-14T12:29:23.996Z,11.87
2022-11-14T12:32:02.409Z,10.40
2022-11-14T12:34:38.984Z,11.40
2022-11-14T12:37:17.512Z,11.57
2022-11-14T12:39:57.880Z,10.97
2022-11-14T12:42:26.097Z,9.67
2022-11-14T12:44:53.294Z,10.00
2022-11-14T12:47:26.576Z,10.17
2022-11-14T12:49:53.494Z,10.73
2022-11-14T12:52:45.301Z,9.90
2022-11-14T12:55:27.444Z,9.23
2022-11-14T12:58:30.759Z,7.27
2022-11-14T13:01:26.145Z,7.73
2022-11-14T13:04:17.775Z,7.90
2022-11-14T13:06:56.644Z,6.87
2022-11-14T13:09:35.143Z,7.37
2022-11-14T13:12:40.616Z,6.70
2022-11-14T13:15:51.543Z,6.67
2022-11-14T13:18:36.812Z,7.07
2022-11-14T13:21:47.380Z,5.90
2022-11-14T13:24:18.330Z,5.37
2022-11-14T13:26:48.806Z,5.47
2022-11-14T13:29:45.130Z,5.27
2022-11-14T13:32:12.360Z,6.27
2022-11-14T13:34:46.626Z,6.13
2022-11-14T13:37:47.494Z,6.00
2022-11-14T13:40:28.827Z,5.17
2022-11-14T13:43:24.448Z,4.63
2022-11-14T13:46:31.866Z,5.97
2022-11-14T13:49:28.728Z,4.60
2022-11-14T13:51:56.329Z,5.40
2022-11-14T13:54:23.873Z,4.30
2022-11-14T13:56:57.470Z,5.80
2022-11-14T13:59:59.855Z,5.57
2022-11-14T14:02:54.080Z,4.47
2022-11-14T14:05:54.334Z,5.33
2022-11-14T14:08:46.683Z,4.80
2022-11-14T14:11:43.258Z,5.00
2022-11-14T14:14:16.291Z,5.53
2022-11-14T14:17:15.950Z,4.37
2022-11-14T14:20:17.780Z,4.47
2022-11-14T14:23:00.416Z,5.30
2022-11-14T14:25:59.028Z,4.43
2022-11-14T14:28:49.349Z,5.27
2022-11-14T14:31:20.231Z,5.07
2022-11-14T14:33:51.435Z,6.20
2022-11-14T14:36:19.958Z,5.20
2022-11-14T14:38:48.025Z,5.40
2022-11-14T14:41:18.668Z,4.43
2022-11-14T14:43:54.780Z,5.50
2022-11-14T14:46:31.853Z,5.83
2022-11-14T14:49:02.688Z,6.50
2022-11-14T14:51:33.097Z,6.40
2022-11-14T14:54:00.634Z,5.63
2022-11-14T14:56:28.895Z,5.67
2022-11-14T14:58:56.739Z,4.83
2022-11-14T15:01:33.110Z,5.60
2022-11-14T15:04:09.300Z,6.70
2022-11-14T15:06:41.355Z,7.10
2022-11-14T15:09:26.832Z,8.67
2022-11-14T15:11:59.234Z,6.90
2022-11-14T15:14:31.976Z,10.43
2022-11-14T15:17:00.510Z,9.30
2022-11-14T15:19:46.039Z,8.30
2022-11-14T15:22:15.955Z,8.30
2022-11-14T15:24:42.956Z,8.17
2022-11-14T15:27:18.242Z,8.17
2022-11-14T15:29:51.588Z,8.30
2022-11-14T15:32:22.012Z,10.40
2022-11-14T15:35:26.159Z,14.30
2022-11-14T15:38:42.485Z,18.23
2022-11-14T15:41:23.963Z,13.93
2022-11-14T15:44:01.836Z,13.20
2022-11-14T15:47:25.975Z,18.93
2022-11-14T15:50:26.971Z,17.60
2022-11-14T15:53:02.993Z,15.10
2022-11-14T15:55:30.194Z,18.80
2022-11-14T15:58:21.327Z,18.37
2022-11-14T16:00:53.731Z,18.67
2022-11-14T16:03:23.059Z,14.90
2022-11-14T16:05:50.042Z,13.33
2022-11-14T16:08:17.081Z,18.10
2022-11-14T16:10:44.149Z,14.37
2022-11-14T16:13:11.469Z,16.67
2022-11-14T16:15:38.875Z,18.07
2022-11-14T16:18:06.354Z,34.33
2022-11-14T16:20:38.285Z,28.47
2022-11-14T16:23:06.359Z,21.87
2022-11-14T16:25:33.634Z,23.60
2022-11-14T16:28:00.580Z,25.27
2022-11-14T16:30:27.592Z,18.03
2022-11-14T16:32:54.550Z,20.10
2022-11-14T16:35:25.246Z,24.73
2022-11-14T16:37:55.209Z,17.30
2022-11-14T16:40:27.836Z,21.20
2022-11-14T16:42:57.350Z,20.53
2022-11-14T16:45:26.584Z,21.70
2022-11-14T16:47:53.961Z,22.27
2022-11-14T16:50:20.991Z,23.40
2022-11-14T16:52:49.420Z,34.90
2022-11-14T16:55:16.516Z,19.80
2022-11-14T16:57:43.524Z,21.17
2022-11-14T17:00:13.564Z,20.80
2022-11-14T17:02:41.782Z,20.43
2022-11-14T17:05:09.355Z,18.90
2022-11-14T17:07:36.347Z,18.87
2022-11-14T17:10:05.106Z,25.80
2022-11-14T17:12:34.276Z,19.77
2022-11-14T17:15:01.309Z,19.97
2022-11-14T17:17:29.020Z,21.40
2022-11-14T17:19:55.956Z,16.87
2022-11-14T17:22:23.442Z,17.43
2022-11-14T17:24:50.445Z,18.73
2022-11-14T17:27:17.640Z,21.90
2022-11-14T17:29:44.793Z,20.33
2022-11-14T17:32:12.069Z,14.97
2022-11-14T17:34:39.085Z,21.60
2022-11-14T17:37:06.110Z,16.70
2022-11-14T17:39:35.262Z,15.50
2022-11-14T17:42:02.274Z,15.50
2022-11-14T17:44:29.386Z,17.50
2022-11-14T17:46:56.464Z,19.13
2022-11-14T17:49:23.540Z,15.77
2022-11-14T17:51:50.548Z,16.23
2022-11-14T17:54:17.517Z,16.80
2022-11-14T17:56:49.619Z,18.20
2022-11-14T17:59:20.614Z,27.83
2022-11-14T18:01:47.860Z,19.37
2022-11-14T18:04:14.844Z,23.40
2022-11-14T18:06:48.574Z,18.83
2022-11-14T18:09:15.623Z,17.90
2022-11-14T18:11:42.593Z,17.73
2022-11-14T18:14:09.554Z,19.97
2022-11-14T18:17:05.558Z,20.83
2022-11-14T18:19:24.911Z,18.70
2022-11-14T18:21:53.884Z,22.73
2022-11-14T18:24:21.878Z,23.40
2022-11-14T18:26:48.985Z,20.97
2022-11-14T18:29:16.208Z,22.00
2022-11-14T18:31:43.229Z,23.80
2022-11-14T18:34:10.819Z,24.53
2022-11-14T18:36:37.845Z,18.73
2022-11-14T18:39:04.870Z,21.30
2022-11-14T18:41:31.908Z,21.40
2022-11-14T18:43:59.309Z,19.37
2022-11-14T18:46:26.779Z,21.67
2022-11-14T18:48:57.272Z,22.00
2022-11-14T18:51:29.803Z,25.33
2022-11-14T18:53:59.618Z,21.27
2022-11-14T18:56:27.172Z,22.20
2022-11-14T18:58:56.419Z,19.07
2022-11-14T19:01:30.391Z,21.53
2022-11-14T19:04:02.888Z,21.23
2022-11-14T19:06:35.705Z,24.67
2022-11-14T19:09:11.619Z,23.70
2022-11-14T19:11:57.977Z,24.87
2022-11-14T19:14:25.068Z,21.57
2022-11-14T19:16:52.050Z,26.87
2022-11-14T19:19:18.956Z,21.00
2022-11-14T19:21:50.676Z,23.03
2022-11-14T19:24:17.978Z,23.17
2022-11-14T19:26:45.225Z,26.83
2022-11-14T19:29:15.359Z,24.00
2022-11-14T19:31:47.643Z,24.60
2022-11-14T19:34:17.479Z,25.80
2022-11-14T19:37:03.746Z,19.97
2022-11-14T19:39:33.835Z,29.47
2022-11-14T19:42:03.923Z,30.27
2022-11-14T19:44:36.296Z,26.43
2022-11-14T19:47:04.255Z,25.30
2022-11-14T19:49:32.292Z,26.07
2022-11-14T19:51:59.430Z,25.30
2022-11-14T19:54:27.252Z,26.33
2022-11-14T19:56:54.270Z,31.33
2022-11-14T19:59:26.868Z,25.20
2022-11-14T20:02:00.256Z,24.73
2022-11-14T20:04:33.252Z,23.27
2022-11-14T20:07:06.852Z,28.83
2022-11-14T20:09:37.127Z,24.83
2022-11-14T20:12:05.812Z,29.80
2022-11-14T20:14:38.384Z,28.40
2022-11-14T20:17:08.290Z,29.30
2022-11-14T20:19:36.123Z,26.23
2022-11-14T20:22:07.402Z,33.37
2022-11-14T20:24:36.263Z,24.97
2022-11-14T20:27:04.624Z,32.77
2022-11-14T20:29:36.719Z,28.53
2022-11-14T20:32:14.504Z,29.47
2022-11-14T20:34:43.976Z,27.97
2022-11-14T20:37:12.122Z,23.00
2022-11-14T20:39:40.829Z,28.53
2022-11-14T20:42:08.809Z,26.73
2022-11-14T20:44:42.870Z,29.80
2022-11-14T20:47:11.340Z,34.40
2022-11-14T20:49:38.821Z,25.47
2022-11-14T20:52:06.629Z,33.23
2022-11-14T20:54:34.728Z,29.20
2022-11-14T20:57:01.710Z,31.10
2022-11-14T20:59:28.883Z,30.10
2022-11-14T21:01:56.818Z,25.50
2022-11-14T21:04:24.790Z,34.10
2022-11-14T21:06:53.319Z,27.87
2022-11-14T21:09:23.581Z,26.30
2022-11-14T21:11:52.360Z,23.43
2022-11-14T21:14:22.955Z,26.13
2022-11-14T21:16:50.133Z,26.10
2022-11-14T21:19:19.872Z,26.50
2022-11-14T21:21:47.635Z,25.07
2022-11-14T21:24:15.783Z,23.17
2022-11-14T21:26:42.955Z,30.13
2022-11-14T21:29:15.514Z,25.60
2022-11-14T21:31:47.377Z,25.70
2022-11-14T21:34:21.576Z,30.43
2022-11-14T21:36:53.734Z,25.93
2022-11-14T21:39:23.559Z,21.37
2022-11-14T21:41:51.709Z,28.77
2022-11-14T21:44:19.179Z,26.07
2022-11-14T21:46:49.874Z,24.00
2022-11-14T21:49:16.976Z,25.10
2022-11-14T21:51:43.968Z,19.50
2022-11-14T21:54:11.269Z,23.03
2022-11-14T21:56:38.277Z,24.60
2022-11-14T21:59:15.587Z,25.57
2022-11-14T22:02:05.713Z,22.97
2022-11-14T22:04:33.766Z,25.30
2022-11-14T22:07:08.669Z,23.80
2022-11-14T22:09:39.885Z,22.17
2022-11-14T22:12:08.739Z,25.23
2022-11-14T22:14:36.015Z,27.70
2022-11-14T22:17:02.949Z,27.70
2022-11-14T22:19:29.916Z,29.80
2022-11-14T22:21:56.966Z,29.57
2022-11-14T22:24:24.069Z,30.47
2022-11-14T22:26:51.016Z,27.63
2022-11-14T22:29:18.015Z,33.67
2022-11-14T22:31:45.358Z,28.40
2022-11-14T22:34:12.683Z,28.63
2022-11-14T22:36:39.568Z,33.50
2022-11-14T22:39:06.754Z,34.30
2022-11-14T22:41:33.970Z,33.70
2022-11-14T22:44:01.949Z,30.20
2022-11-14T22:46:29.694Z,25.30
2022-11-14T22:48:56.783Z,25.83
2022-11-14T22:51:26.516Z,30.73
2022-11-14T22:53:58.193Z,31.80
2022-11-14T22:56:29.083Z,31.70
2022-11-14T22:58:57.444Z,35.07
2022-11-14T23:01:27.528Z,35.63
2022-11-14T23:03:58.208Z,36.97
2022-11-14T23:06:26.405Z,38.50
2022-11-14T23:08:53.926Z,31.50
2022-11-14T23:11:27.928Z,33.77
2022-11-14T23:13:57.548Z,29.27
2022-11-14T23:16:28.712Z,29.10
2022-11-14T23:18:59.420Z,32.80
2022-11-14T23:21:33.974Z,35.87
2022-11-14T23:24:06.113Z,29.67
2022-11-14T23:26:34.388Z,32.23
2022-11-14T23:29:01.389Z,31.60
2022-11-14T23:31:28.818Z,31.83
2022-11-14T23:33:58.355Z,26.30
2022-11-14T23:36:26.143Z,25.93
2022-11-14T23:38:54.298Z,32.70
2022-11-14T23:41:28.043Z,30.50
2022-11-14T23:43:55.229Z,29.40
2022-11-14T23:46:22.308Z,25.03
2022-11-14T23:48:49.374Z,30.50
2022-11-14T23:51:17.718Z,33.80
2022-11-14T23:53:44.765Z,25.10
2022-11-14T23:56:14.443Z,27.83
2022-11-14T23:58:42.528Z,30.27
